Flugplatz Hahnweide

EDST · Baden-Württemberg, Germany

METAR history EDST · Flugplatz Hahnweide

Below you see METARs of the last few days. Select a year to browse through older METARs, from the year 2007 onwards.

February 21, 2024

Time Code Weather Temp. Visibility Ceiling Wind METAR/SPECI
19:20
V
9 °C 10 km+ - Var Var 2 kt METAR EDDS 211820Z AUTO VRB02KT CAVOK 09/03 Q1013 NOSIG
18:50
V
10 °C 10 km+ - 180° 180° 4 kt METAR EDDS 211750Z AUTO 18004KT CAVOK 10/04 Q1013 NOSIG
18:20
V
10 °C 10 km+ - 150° 150° 5 kt METAR EDDS 211720Z AUTO 15005KT CAVOK 10/03 Q1013 NOSIG
17:50
V
10 °C 10 km+ - 150° 150° 4 kt METAR EDDS 211650Z AUTO 15004KT CAVOK 10/03 Q1014 NOSIG
17:20
V
11 °C 10 km+ - 160° 160° 5 kt METAR EDDS 211620Z AUTO 16005KT CAVOK 11/04 Q1014 NOSIG
16:50
V
12 °C 10 km+ - 140° 140° 4 kt METAR EDDS 211550Z AUTO 14004KT 100V160 CAVOK 12/03 Q1015 NOSIG
16:20
V
12 °C 10 km+ - 220° 220° 3 kt METAR EDDS 211520Z AUTO 22003KT 180V260 CAVOK 12/02 Q1015 NOSIG
15:50
V
12 °C 10 km+ - 240° 240° 5 kt METAR EDDS 211450Z AUTO 24005KT CAVOK 12/02 Q1016 NOSIG
15:20
V
12 °C 10 km+ - 230° 230° 5 kt METAR EDDS 211420Z AUTO 23005KT 160V260 CAVOK 12/01 Q1016 NOSIG
14:50
V
12 °C 10 km+ - 230° 230° 5 kt METAR EDDS 211350Z AUTO 23005KT 190V270 CAVOK 12/01 Q1017 NOSIG
14:20
V
12 °C 10 km+ - 240° 240° 5 kt METAR EDDS 211320Z AUTO 24005KT 200V280 CAVOK 12/M00 Q1017 NOSIG
13:50
V
12 °C 10 km+ - 230° 230° 6 kt METAR EDDS 211250Z AUTO 23006KT 180V260 CAVOK 12/00 Q1018 NOSIG
13:20
V
11 °C 10 km+ - 230° 230° 5 kt METAR EDDS 211220Z AUTO 23005KT 160V270 CAVOK 11/01 Q1019 NOSIG
12:50
V
11 °C 10 km+ - 220° 220° 5 kt METAR EDDS 211150Z AUTO 22005KT 160V260 CAVOK 11/01 Q1019 NOSIG
12:20
V
11 °C 10 km+ - 210° 210° 4 kt METAR EDDS 211120Z AUTO 21004KT 160V260 CAVOK 11/01 Q1020 NOSIG
11:50
V
10 °C 10 km+ - 220° 220° 5 kt METAR EDDS 211050Z AUTO 22005KT 150V260 CAVOK 10/02 Q1020 NOSIG
11:20
V
9 °C 10 km+ - 210° 210° 5 kt METAR EDDS 211020Z AUTO 21005KT 160V270 CAVOK 09/02 Q1021 NOSIG
10:50
V
9 °C 10 km+ - 210° 210° 5 kt METAR EDDS 210950Z AUTO 21005KT 130V260 CAVOK 09/02 Q1021 NOSIG
10:20
V
8 °C 10 km+ - 200° 200° 3 kt METAR EDDS 210920Z AUTO 20003KT 130V270 CAVOK 08/02 Q1021
09:50
V
7 °C 10 km+ - Var Var 2 kt METAR EDDS 210850Z AUTO VRB02KT CAVOK 07/02 Q1022 NOSIG
09:20
V
7 °C 10 km+ - 200° 200° 4 kt METAR EDDS 210820Z AUTO 20004KT 150V260 CAVOK 07/02 Q1022 NOSIG
08:50
V
6 °C 10 km+ - Var Var 2 kt METAR EDDS 210750Z AUTO VRB02KT CAVOK 06/02 Q1022 NOSIG
08:20
V
5 °C 10 km+ - Var Var 1 kt METAR EDDS 210720Z AUTO VRB01KT CAVOK 05/02 Q1023 NOSIG
07:50
V
5 °C 10 km+ - 230° 230° 3 kt METAR EDDS 210650Z AUTO 23003KT 170V270 CAVOK 05/01 Q1023
07:20
V
4 °C 10 km+ - 220° 220° 3 kt METAR EDDS 210620Z AUTO 22003KT 190V270 CAVOK 04/01 Q1023 NOSIG
06:50
V
4 °C 10 km+ - 200° 200° 3 kt METAR EDDS 210550Z AUTO 20003KT 170V250 CAVOK 04/01 Q1023 NOSIG
06:20
V
4 °C 10 km+ - 280° 280° 5 kt METAR EDDS 210520Z AUTO 28005KT CAVOK 04/00 Q1024 NOSIG
05:50
V
5 °C 10 km+ - Var Var 2 kt METAR EDDS 210450Z AUTO VRB02KT CAVOK 05/01 Q1023
05:20
V
5 °C 10 km+ - 210° 210° 3 kt METAR EDDS 210420Z AUTO 21003KT 170V250 CAVOK 05/02 Q1024
04:50
V
5 °C 10 km+ - 330° 330° 4 kt METAR EDDS 210350Z AUTO 33004KT CAVOK 05/02 Q1024
04:20
V
6 °C 10 km+ - Var Var 1 kt METAR EDDS 210320Z AUTO VRB01KT 9999 -DZ FEW036 SCT049 06/02 Q1024
03:50
V
6 °C 10 km+ - Var Var 2 kt METAR EDDS 210250Z AUTO VRB02KT CAVOK 06/02 Q1025
03:20
V
5 °C 10 km+ - Var Var 2 kt METAR EDDS 210220Z AUTO VRB02KT CAVOK 05/02 Q1025
02:50
V
5 °C 10 km+ - 210° 210° 3 kt METAR EDDS 210150Z AUTO 21003KT 130V230 CAVOK 05/02 Q1026
02:20
V
5 °C 10 km+ - Var Var 2 kt METAR EDDS 210120Z AUTO VRB02KT CAVOK 05/02 Q1026
01:50
V
5 °C 10 km+ - Var Var 2 kt METAR EDDS 210050Z AUTO VRB02KT CAVOK 05/02 Q1026
01:20
V
5 °C 10 km+ - Var Var 1 kt METAR EDDS 210020Z AUTO VRB01KT CAVOK 05/02 Q1027
00:50
V
5 °C 10 km+ - 180° 180° 2 kt METAR EDDS 202350Z AUTO 18002KT CAVOK 05/02 Q1027
00:20
V
5 °C 10 km+ - Var Var 2 kt METAR EDDS 202320Z AUTO VRB02KT CAVOK 05/02 Q1027

February 20, 2024

Time Code Weather Temp. Visibility Ceiling Wind METAR/SPECI
23:50
V
5 °C 10 km+ - Var Var 2 kt METAR EDDS 202250Z AUTO VRB02KT CAVOK 05/02 Q1027
23:20
V
5 °C 10 km+ - Var Var 1 kt METAR EDDS 202220Z AUTO VRB01KT CAVOK 05/02 Q1027
22:50
V
5 °C 10 km+ - 190° 190° 3 kt METAR EDDS 202150Z AUTO 19003KT CAVOK 05/02 Q1028
22:20
V
5 °C 10 km+ - 190° 190° 3 kt METAR EDDS 202120Z AUTO 19003KT CAVOK 05/02 Q1028
21:50
V
4 °C 10 km+ - 190° 190° 2 kt METAR EDDS 202050Z AUTO 19002KT CAVOK 04/02 Q1028 NOSIG
21:20
V
5 °C 10 km+ - Var Var 2 kt METAR EDDS 202020Z AUTO VRB02KT CAVOK 05/02 Q1028 NOSIG
20:50
V
5 °C 10 km+ - 250° 250° 2 kt METAR EDDS 201950Z AUTO 25002KT CAVOK 05/02 Q1028 NOSIG
20:20
V
5 °C 10 km+ - 240° 240° 2 kt METAR EDDS 201920Z AUTO 24002KT CAVOK 05/02 Q1028 NOSIG
19:50
V
7 °C 10 km+ - 230° 230° 3 kt METAR EDDS 201850Z AUTO 23003KT 190V280 CAVOK 07/02 Q1028 NOSIG
19:20
V
7 °C 10 km+ - Var Var 2 kt METAR EDDS 201820Z AUTO VRB02KT CAVOK 07/02 Q1028 NOSIG
18:50
V
7 °C 10 km+ - Var Var 2 kt METAR EDDS 201750Z AUTO VRB02KT CAVOK 07/02 Q1028 NOSIG
18:20
V
8 °C 10 km+ - Var Var 2 kt METAR EDDS 201720Z AUTO VRB02KT CAVOK 08/02 Q1028 NOSIG
17:50
V
8 °C 10 km+ - 230° 230° 5 kt METAR EDDS 201650Z AUTO 23005KT 200V260 CAVOK 08/02 Q1028 NOSIG
17:20
V
8 °C 10 km+ - 230° 230° 8 kt METAR EDDS 201620Z AUTO 23008KT 190V260 CAVOK 08/02 Q1028 NOSIG
16:50
V
9 °C 10 km+ - 250° 250° 8 kt METAR EDDS 201550Z AUTO 25008KT 210V280 9999 FEW036 09/02 Q1028 NOSIG
16:20
V
9 °C 10 km+ 4,300 ft 250° 250° 9 kt METAR EDDS 201520Z AUTO 25009KT 210V280 9999 BKN043 09/02 Q1028 NOSIG
15:50
V
9 °C 10 km+ 4,200 ft 280° 280° 9 kt METAR EDDS 201450Z AUTO 28009KT 9999 BKN042 09/00 Q1028 NOSIG
15:20
V
10 °C 10 km+ 4,300 ft 280° 280° 11 kt METAR EDDS 201420Z AUTO 28011KT 240V310 9999 BKN043 10/01 Q1028 NOSIG
14:50
V
10 °C 10 km+ 4,600 ft 280° 280° 11 kt METAR EDDS 201350Z AUTO 28011KT 250V320 9999 FEW035 BKN046 10/01 Q1028 NOSIG
14:20
V
9 °C 10 km+ 4,600 ft 260° 260° 12 kt METAR EDDS 201320Z AUTO 26012KT 230V290 9999 FEW037 BKN046 09/02 Q1029 NOSIG
13:50
V
10 °C 10 km+ 4,400 ft 270° 270° 10 kt METAR EDDS 201250Z AUTO 27010KT 230V310 9999 FEW035 BKN044 10/02 Q1029 NOSIG
13:20
V
9 °C 10 km+ 4,600 ft 300° 300° 13 kt METAR EDDS 201220Z AUTO 30013KT 260V340 9999 SCT034 BKN046 09/01 Q1029 NOSIG
12:50
V
10 °C 10 km+ 4,400 ft 270° 270° 9 kt METAR EDDS 201150Z AUTO 27009KT 230V290 9999 SCT035 BKN044 10/02 Q1029 NOSIG
12:20
V
8 °C 10 km+ 4,000 ft 290° 290° 8 kt METAR EDDS 201120Z AUTO 29008KT 9999 FEW026 BKN040 BKN047 08/02 Q1029 NOSIG
11:50
V
9 °C 10 km+ 4,300 ft 260° 260° 7 kt METAR EDDS 201050Z AUTO 26007KT 220V300 9999 FEW022 SCT029 BKN043 09/03 Q1030 NOSIG
11:20
V
8 °C 10 km+ 3,300 ft 290° 290° 8 kt METAR EDDS 201020Z AUTO 29008KT 250V310 9999 FEW019 BKN033 BKN045 08/03 Q1030 NOSIG
10:50
V
8 °C 10 km+ 4,700 ft 290° 290° 10 kt METAR EDDS 200950Z AUTO 29010KT 9999 SCT017 SCT021 BKN047 08/04 Q1030 NOSIG
10:20
V
7 °C 10 km+ 4,700 ft 290° 290° 8 kt METAR EDDS 200920Z AUTO 29008KT 240V320 9999 FEW017 SCT022 BKN047 07/04 Q1030 NOSIG
09:50
V
7 °C 10 km+ 4,500 ft 260° 260° 7 kt METAR EDDS 200850Z AUTO 26007KT 9999 FEW017 SCT023 BKN045 07/04 Q1029 NOSIG
09:20
V
6 °C 10 km+ 4,600 ft 250° 250° 6 kt METAR EDDS 200820Z AUTO 25006KT 9999 BKN046 06/04 Q1029 NOSIG
08:50
V
6 °C 10 km+ 4,300 ft 240° 240° 6 kt METAR EDDS 200750Z AUTO 24006KT 9999 OVC043 06/03 Q1029 NOSIG
08:20
V
6 °C 10 km+ 4,300 ft 260° 260° 6 kt METAR EDDS 200720Z AUTO 26006KT 9999 OVC043 06/03 Q1029 NOSIG
07:50
V
5 °C 10 km+ 4,400 ft 250° 250° 6 kt METAR EDDS 200650Z AUTO 25006KT 9999 OVC044 05/03 Q1029 NOSIG
07:20
V
5 °C 10 km+ 4,300 ft 260° 260° 6 kt METAR EDDS 200620Z AUTO 26006KT 9999 OVC043 05/03 Q1028 NOSIG
06:50
V
6 °C 10 km+ 4,400 ft 270° 270° 9 kt METAR EDDS 200550Z AUTO 27009KT 9999 FEW027 BKN044 06/03 Q1028 NOSIG
06:20
V
6 °C 10 km+ 4,700 ft 290° 290° 10 kt METAR EDDS 200520Z AUTO 29010KT 9999 -SHRA BKN047 FEW///TCU 06/03 Q1028 NOSIG
05:50
V
6 °C 10 km+ 4,500 ft 300° 300° 10 kt METAR EDDS 200450Z AUTO 30010KT 9999 FEW016 SCT039 BKN045 06/03 Q1028
05:20
V
6 °C 10 km+ 4,400 ft 290° 290° 9 kt METAR EDDS 200420Z AUTO 29009KT 9999 -SHRA FEW016 SCT033 BKN044 FEW///TCU 06/04 Q1027
04:50
V
6 °C 10 km+ 3,300 ft 290° 290° 11 kt METAR EDDS 200350Z AUTO 29011KT 9999 -SHRA FEW015 BKN033 BKN040 FEW///TCU 06/04 Q1027
04:20
V
7 °C 10 km+ 3,600 ft 300° 300° 10 kt METAR EDDS 200320Z AUTO 30010KT 9999 FEW016 OVC036 07/04 Q1027
03:50
V
7 °C 10 km+ 3,300 ft 290° 290° 9 kt METAR EDDS 200250Z AUTO 29009KT 9999 SCT016 SCT023 OVC033 07/05 Q1026
03:20
V
7 °C 10 km+ 3,200 ft 270° 270° 7 kt METAR EDDS 200220Z AUTO 27007KT 9999 SCT018 BKN032 OVC042 07/05 Q1026
02:50
M
7 °C 10 km+ 2,500 ft 280° 280° 9 kt METAR EDDS 200150Z AUTO 28009KT 9999 SCT018 BKN025 OVC040 07/05 Q1026
02:20
M
7 °C 10 km+ 2,500 ft 290° 290° 9 kt METAR EDDS 200120Z AUTO 29009KT 9999 -SHRA FEW013 BKN025 BKN031 FEW///TCU 07/05 Q1026 RESHRA
01:50
M
7 °C 10 km+ 1,500 ft 250° 250° 6 kt METAR EDDS 200050Z AUTO 25006KT 220V280 9999 SHRA BKN015 BKN021 OVC035 SCT///TCU 07/05 Q1026
01:20
M
7 °C 10 km+ 1,800 ft 250° 250° 6 kt METAR EDDS 200020Z AUTO 25006KT 9999 -SHRA BKN018 BKN022 OVC028 FEW///TCU 07/05 Q1026 RESHRA
00:50
V
7 °C 10 km+ 3,800 ft 260° 260° 7 kt METAR EDDS 192350Z AUTO 26007KT 9999 -SHRA FEW024 BKN038 OVC044 FEW///TCU 07/05 Q1026
00:20
V
8 °C 10 km+ 3,400 ft 270° 270° 9 kt METAR EDDS 192320Z AUTO 27009KT 9999 -SHRA FEW018 BKN034 OVC045 FEW///CB 08/05 Q1026

February 19, 2024

Time Code Weather Temp. Visibility Ceiling Wind METAR/SPECI
23:50
M
8 °C 10 km+ 2,200 ft 250° 250° 5 kt METAR EDDS 192250Z AUTO 25005KT 9999 -SHRA BKN022 BKN033 FEW///TCU 08/05 Q1026
23:20
V
8 °C 10 km+ 4,600 ft 250° 250° 8 kt METAR EDDS 192220Z AUTO 25008KT 220V280 9999 VCSH FEW023 BKN046 FEW///TCU 08/06 Q1026
22:50
V
8 °C 10 km+ 4,600 ft 250° 250° 4 kt METAR EDDS 192150Z AUTO 25004KT 210V270 9999 FEW023 SCT038 OVC046 08/06 Q1026
22:20
V
8 °C 10 km+ 3,700 ft 240° 240° 3 kt METAR EDDS 192120Z AUTO 24003KT 190V270 9999 -SHRA FEW014 SCT028 BKN037 SCT///TCU 08/06 Q1026 RESHRA
21:50
V
8 °C 10 km+ 4,100 ft 240° 240° 6 kt METAR EDDS 192050Z AUTO 24006KT 9999 SHRA SCT032 BKN041 FEW///CB 08/05 Q1026 BECMG -SHRA
21:20
V
8 °C 10 km+ 3,900 ft 230° 230° 6 kt METAR EDDS 192020Z AUTO 23006KT 150V280 9999 VCSH FEW030 BKN039 FEW///TCU 08/05 Q1026 TEMPO SHRA
20:50
V
8 °C 10 km+ 3,500 ft 220° 220° 5 kt METAR EDDS 191950Z AUTO 22005KT 180V260 9999 BKN035 08/05 Q1026 NOSIG
20:20
V
9 °C 10 km+ 4,700 ft 230° 230° 7 kt METAR EDDS 191920Z AUTO 23007KT 200V260 9999 -SHRA FEW032 SCT040 BKN047 FEW///TCU 09/05 Q1026 NOSIG
19:50
V
9 °C 10 km+ - 230° 230° 5 kt METAR EDDS 191850Z AUTO 23005KT 180V280 9999 FEW046 09/05 Q1027 NOSIG
19:20
V
9 °C 10 km+ - 240° 240° 8 kt METAR EDDS 191820Z AUTO 24008KT CAVOK 09/05 Q1027
18:50
V
9 °C 10 km+ 4,500 ft 250° 250° 8 kt METAR EDDS 191750Z AUTO 25008KT 220V280 9999 FEW029 SCT038 BKN045 09/04 Q1027 NOSIG
18:20
V
9 °C 10 km+ 4,800 ft 250° 250° 6 kt METAR EDDS 191720Z AUTO 25006KT 210V280 9999 -SHRA FEW031 SCT039 BKN048 FEW///CB 09/04 Q1027 NOSIG
17:50
V
9 °C 10 km+ 4,600 ft 250° 250° 9 kt METAR EDDS 191650Z AUTO 25009KT 220V280 9999 -SHRA FEW021 BKN046 FEW///CB 09/04 Q1027 NOSIG
17:20
V
10 °C 10 km+ - 240° 240° 6 kt METAR EDDS 191620Z AUTO 24006KT 200V270 9999 FEW041 10/04 Q1027 NOSIG
16:50
V
10 °C 10 km+ 4,200 ft 240° 240° 6 kt METAR EDDS 191550Z AUTO 24006KT 9999 -SHRA BKN042 BKN048 FEW///TCU 10/04 Q1027 NOSIG
16:20
V
10 °C 10 km+ - 240° 240° 6 kt METAR EDDS 191520Z AUTO 24006KT 180V260 9999 FEW042 10/04 Q1027 NOSIG
15:50
V
10 °C 10 km+ 3,700 ft 230° 230° 7 kt METAR EDDS 191450Z AUTO 23007KT 190V260 9999 BKN037 OVC046 10/04 Q1027 NOSIG
15:20
V
10 °C 10 km+ 3,500 ft 240° 240° 6 kt METAR EDDS 191420Z AUTO 24006KT 190V270 9999 BKN035 OVC045 10/03 Q1027 NOSIG
14:50
V
10 °C 10 km+ 4,400 ft 240° 240° 8 kt METAR EDDS 191350Z AUTO 24008KT 210V270 9999 FEW036 OVC044 10/03 Q1027
14:20
V
10 °C 10 km+ 4,200 ft 230° 230° 7 kt METAR EDDS 191320Z AUTO 23007KT 190V260 9999 OVC042 10/03 Q1028 NOSIG
13:50
V
9 °C 10 km+ 3,300 ft 270° 270° 14 kt METAR EDDS 191250Z AUTO 27014KT 9999 OVC033 09/03 Q1028 NOSIG
13:20
M
9 °C 10 km+ 2,900 ft 280° 280° 12 kt METAR EDDS 191220Z AUTO 28012KT 9999 BKN029 OVC034 09/02 Q1028 NOSIG
12:50
V
9 °C 10 km+ 3,400 ft 280° 280° 11 kt METAR EDDS 191150Z AUTO 28011KT 9999 SCT024 OVC034 09/03 Q1029 NOSIG
12:20
V
9 °C 10 km+ 3,400 ft 280° 280° 14 kt METAR EDDS 191120Z AUTO 28014KT 9999 SCT024 BKN034 09/04 Q1029 NOSIG
11:50
V
9 °C 10 km+ 3,300 ft 270° 270° 15 kt METAR EDDS 191050Z AUTO 27015KT 9999 FEW025 OVC033 09/03 Q1030 NOSIG
11:20
V
9 °C 10 km+ 3,300 ft 270° 270° 14 kt METAR EDDS 191020Z AUTO 27014KT 230V290 9999 BKN033 09/04 Q1029 NOSIG
10:50
V
9 °C 10 km+ 3,600 ft 270° 270° 12 kt METAR EDDS 190950Z AUTO 27012KT 9999 OVC036 09/04 Q1029 NOSIG
10:20
V
8 °C 10 km+ 3,400 ft 270° 270° 12 kt METAR EDDS 190920Z AUTO 27012KT 9999 OVC034 08/04 Q1029 NOSIG
09:50
V
8 °C 10 km+ 3,400 ft 270° 270° 11 kt METAR EDDS 190850Z AUTO 27011KT 9999 OVC034 08/05 Q1029 NOSIG
09:20
V
8 °C 10 km+ 3,600 ft 260° 260° 11 kt METAR EDDS 190820Z AUTO 26011KT 9999 OVC036 08/05 Q1028 NOSIG
08:50
V
8 °C 10 km+ 3,500 ft 270° 270° 11 kt METAR EDDS 190750Z AUTO 27011KT 9999 FEW018 OVC035 08/05 Q1028 NOSIG
08:20
M
8 °C 10 km+ 1,500 ft 270° 270° 7 kt METAR EDDS 190720Z AUTO 27007KT 9999 BKN015 BKN029 OVC034 08/05 Q1028 TEMPO BKN013
07:50
M
8 °C 10 km+ 1,800 ft 290° 290° 8 kt METAR EDDS 190650Z AUTO 29008KT 9999 BKN018 BKN029 OVC038 08/06 Q1027 NOSIG
07:20
V
8 °C 10 km+ 3,100 ft 270° 270° 5 kt METAR EDDS 190620Z AUTO 27005KT 240V310 9999 FEW018 BKN031 OVC039 08/06 Q1027 NOSIG
06:50
V
8 °C 10 km+ 4,000 ft 270° 270° 13 kt METAR EDDS 190550Z AUTO 27013KT 9999 BKN040 08/06 Q1027 NOSIG